To NAV CANADA Home Page Login to a new session Search on AWWS site Feedback and Comments Disclaimer Vers la page française équivalente Tips FAQ What's new on the site To the Forecasts and Observations / NOTAM section To "File a Flight Plan" website Publications and other links Update of the User's profile FIC Telephone Numbers My Weather Data Folder Route Weather Data Regional Weather Data Local Weather Data To the Forecasts and Observations / NOTAM section
Request Generated 03/23/2017 at 00:15:53 UTC . Weather information available at that time is displayed.

METAR/TAF

ABBOTSFORD/BC    

METAR CYXX 230000Z 19014KT 8SM -SHRA SCT035 BKN055 BKN080 11/06 A2982
RMK CU3SC3AC1 VIS N 20 SLP102=
SPECI CYXX 222313Z 18016G26KT 20SM -SHRA SCT035 BKN055 BKN090 13/05
A2981 RMK CU3SC3AC1 SLP096=
METAR CYXX 222300Z 18017G28KT 20SM SCT055 BKN090 13/06 A2980 RMK
CU4AC3 SLP093=
SPECI CYXX 222244Z 18019G25KT 20SM SCT055 BKN080 BKN100 13/05 A2980
RMK CU3AC3AC1 SLP093=
METAR CYXX 222200Z 17019G25KT 15SM -SHRA SCT055 OVC065 13/05 A2980
RMK CU4SC4 SLP093=

TAF CYXX 222341Z 2300/2324 20017G27KT P6SM SCT040 BKN080 TEMPO
2300/2304 P6SM -SHRA BKN040 OVC080
BECMG 2302/2304 20010KT
FM230400 18010KT P6SM SCT060 BKN100 TEMPO 2304/2320 P6SM -SHRA
BKN060
BECMG 2308/2310 04006KT
FM232000 06006KT P6SM FEW040 BKN140
RMK NXT FCST BY 230600Z=
Your time UTC time
Weather data provided by Environment Canada and NAV CANADA